Time;durP1;ratioP1;P1;durP2;ratioP2;P2;SDS_P1;SDS_P2;PMS_P1;PMS_P2;Temp;Humidity;BMP_temperature;BMP_pressure;BME280_temperature;BME280_humidity;BME280_pressure;Samples;Min_cycle;Max_cycle;Signal;HPM_P1;HPM_P2
2024/01/22 00:00:06;;;;;;;33.60;16.13;;;;;;;;;;1042478;28;20053;-64
2024/01/22 00:00:37;;;;;;;29.95;15.30;;;;;;;;;;1042462;28;20065;-64
2024/01/22 00:01:27;;;;;;;32.78;15.27;;;;;;;;;;1042952;28;20049;-65
2024/01/22 00:01:58;;;;;;;34.40;15.70;;;;;;;;;;1042153;28;20048;-64
2024/01/22 00:02:29;;;;;;;32.80;14.93;;;;;;;;;;1042972;28;20069;-64
2024/01/22 00:03:00;;;;;;;32.35;15.43;;;;;;;;;;1044993;28;20056;-64
2024/01/22 00:03:31;;;;;;;30.73;14.43;;;;;;;;;;1047288;28;20412;-64
2024/01/22 00:04:01;;;;;;;30.73;14.90;;;;;;;;;;1046147;28;20405;-64
2024/01/22 00:04:32;;;;;;;34.35;16.45;;;;;;;;;;1046847;28;20385;-64
2024/01/22 00:05:03;;;;;;;29.25;15.52;;;;;;;;;;1046438;28;20070;-64
2024/01/22 00:05:33;;;;;;;32.67;15.98;;;;;;;;;;1045014;28;20052;-64
2024/01/22 00:06:04;;;;;;;32.28;15.45;;;;;;;;;;1042593;28;20098;-64
2024/01/22 00:06:42;;;;;;;30.77;14.75;;;;;;;;;;1042508;28;20102;-64
2024/01/22 00:07:13;;;;;;;31.13;14.93;;;;;;;;;;1045280;28;20052;-65
2024/01/22 00:07:43;;;;;;;28.42;14.65;;;;;;;;;;1046252;28;20063;-65
2024/01/22 00:08:13;;;;;;;30.20;14.77;;;;;;;;;;1047098;28;20543;-64
2024/01/22 00:08:44;;;;;;;30.15;15.23;;;;;;;;;;1045992;28;20059;-64
2024/01/22 00:09:14;;;;;;;28.90;14.73;;;;;;;;;;1046698;28;20060;-64
2024/01/22 00:09:45;;;;;;;36.10;16.15;;;;;;;;;;1043709;28;20149;-64
2024/01/22 00:10:16;;;;;;;35.88;15.02;;;;;;;;;;1042951;28;20494;-64
2024/01/22 00:10:46;;;;;;;32.00;14.48;;;;;;;;;;1046358;28;20590;-65
2024/01/22 00:11:17;;;;;;;33.05;15.48;;;;;;;;;;1046127;28;20545;-64
2024/01/22 00:11:47;;;;;;;31.33;15.48;;;;;;;;;;1044937;28;20065;-65
2024/01/22 00:12:18;;;;;;;33.35;14.75;;;;;;;;;;1043206;28;20140;-64
2024/01/22 00:12:48;;;;;;;34.85;15.73;;;;;;;;;;1046401;28;20052;-64
2024/01/22 00:13:19;;;;;;;31.15;14.75;;;;;;;;;;1044540;28;20135;-64
2024/01/22 00:13:49;;;;;;;28.73;15.52;;;;;;;;;;1042612;28;20045;-64
2024/01/22 00:14:20;;;;;;;29.15;14.05;;;;;;;;;;1042676;28;20048;-64
2024/01/22 00:14:50;;;;;;;32.45;17.08;;;;;;;;;;1042806;28;20061;-64
2024/01/22 00:15:21;;;;;;;26.65;14.07;;;;;;;;;;1044987;28;20083;-64
2024/01/22 00:15:51;;;;;;;30.80;15.13;;;;;;;;;;1045431;28;20045;-64
2024/01/22 00:16:25;;;;;;;30.73;15.20;;;;;;;;;;1046647;28;20055;-64
2024/01/22 00:16:56;;;;;;;30.95;14.52;;;;;;;;;;1046553;28;20051;-64
2024/01/22 00:17:26;;;;;;;30.70;14.65;;;;;;;;;;1046528;28;20052;-64
2024/01/22 00:17:57;;;;;;;29.10;14.70;;;;;;;;;;1046482;28;20037;-64
2024/01/22 00:18:28;;;;;;;28.90;15.07;;;;;;;;;;1043329;28;20036;-65
2024/01/22 00:18:58;;;;;;;29.38;14.90;;;;;;;;;;1044088;28;20475;-65
2024/01/22 00:19:29;;;;;;;32.55;14.38;;;;;;;;;;1042690;28;20472;-64
2024/01/22 00:19:59;;;;;;;28.05;13.55;;;;;;;;;;1042391;28;20060;-64
2024/01/22 00:20:30;;;;;;;34.95;14.93;;;;;;;;;;1042846;28;20045;-64
2024/01/22 00:21:01;;;;;;;30.05;14.20;;;;;;;;;;1042116;28;20055;-64
2024/01/22 00:21:31;;;;;;;32.95;15.45;;;;;;;;;;1043008;28;22007;-64
2024/01/22 00:22:02;;;;;;;26.35;13.98;;;;;;;;;;1042143;28;20059;-64
2024/01/22 00:22:32;;;;;;;30.08;13.88;;;;;;;;;;1043275;28;20500;-64
2024/01/22 00:23:03;;;;;;;32.67;14.60;;;;;;;;;;1041751;28;20139;-65
2024/01/22 00:23:34;;;;;;;30.50;13.68;;;;;;;;;;1046172;28;20512;-64
2024/01/22 00:24:04;;;;;;;30.50;14.55;;;;;;;;;;1046776;28;20133;-64
2024/01/22 00:24:35;;;;;;;32.92;16.00;;;;;;;;;;1043172;28;20429;-64
2024/01/22 00:25:06;;;;;;;32.80;15.45;;;;;;;;;;1042682;28;20131;-64
2024/01/22 00:25:36;;;;;;;25.67;12.88;;;;;;;;;;1042783;28;20508;-64
2024/01/22 00:26:12;;;;;;;27.73;14.02;;;;;;;;;;1044882;28;20126;-64
2024/01/22 00:26:42;;;;;;;26.98;14.38;;;;;;;;;;1046262;28;20040;-64
2024/01/22 00:27:13;;;;;;;32.88;14.93;;;;;;;;;;1046904;28;20260;-64
2024/01/22 00:27:43;;;;;;;29.63;14.13;;;;;;;;;;1046173;28;20063;-64
2024/01/22 00:28:14;;;;;;;29.00;14.10;;;;;;;;;;1047248;28;20043;-64
2024/01/22 00:28:44;;;;;;;29.05;14.27;;;;;;;;;;1046403;28;20154;-64
2024/01/22 00:29:15;;;;;;;30.48;13.95;;;;;;;;;;1045632;28;20052;-65
2024/01/22 00:29:45;;;;;;;31.98;13.95;;;;;;;;;;1043004;28;20053;-64
2024/01/22 00:30:16;;;;;;;32.10;14.15;;;;;;;;;;1042854;28;20049;-64
2024/01/22 00:30:46;;;;;;;30.50;14.23;;;;;;;;;;1044595;28;20132;-65
2024/01/22 00:31:17;;;;;;;25.52;14.20;;;;;;;;;;1046794;28;20483;-65
2024/01/22 00:31:47;;;;;;;30.08;14.95;;;;;;;;;;1046566;28;20106;-65
2024/01/22 00:32:18;;;;;;;29.35;14.65;;;;;;;;;;1044798;28;20044;-64
2024/01/22 00:32:51;;;;;;;31.50;15.00;;;;;;;;;;1045401;28;20053;-64
2024/01/22 00:33:21;;;;;;;31.58;14.55;;;;;;;;;;1046664;28;20110;-64
2024/01/22 00:33:51;;;;;;;33.80;15.00;;;;;;;;;;1046330;28;20048;-64
2024/01/22 00:34:22;;;;;;;32.60;15.02;;;;;;;;;;1046944;28;20076;-64
2024/01/22 00:34:52;;;;;;;28.42;14.32;;;;;;;;;;1046018;28;20106;-64
2024/01/22 00:35:23;;;;;;;28.48;13.88;;;;;;;;;;1047188;28;20148;-64
2024/01/22 00:35:54;;;;;;;33.38;15.82;;;;;;;;;;1045907;28;20052;-66
2024/01/22 00:36:24;;;;;;;30.75;13.82;;;;;;;;;;1047077;28;20049;-64
2024/01/22 00:36:55;;;;;;;29.52;13.77;;;;;;;;;;1046108;28;20105;-64
2024/01/22 00:37:25;;;;;;;27.42;14.52;;;;;;;;;;1043984;28;20041;-64
2024/01/22 00:37:56;;;;;;;35.72;14.95;;;;;;;;;;1042252;28;20095;-64
2024/01/22 00:38:26;;;;;;;31.70;14.57;;;;;;;;;;1045477;28;20044;-64
2024/01/22 00:38:56;;;;;;;31.25;14.55;;;;;;;;;;1043999;28;20071;-64
2024/01/22 00:39:27;;;;;;;31.42;14.68;;;;;;;;;;1042666;28;20095;-64
2024/01/22 00:39:58;;;;;;;26.10;14.48;;;;;;;;;;1042428;28;20587;-64
2024/01/22 00:40:28;;;;;;;34.28;14.68;;;;;;;;;;1042743;28;20114;-64
2024/01/22 00:40:59;;;;;;;29.30;13.93;;;;;;;;;;1042400;28;20072;-63
2024/01/22 00:41:29;;;;;;;32.63;14.85;;;;;;;;;;1043135;28;20049;-64
2024/01/22 00:42:00;;;;;;;32.72;14.75;;;;;;;;;;1042166;28;20056;-66
2024/01/22 00:42:30;;;;;;;28.48;14.55;;;;;;;;;;1042658;28;20069;-64
2024/01/22 00:43:01;;;;;;;36.47;15.95;;;;;;;;;;1042277;28;20055;-64
2024/01/22 00:43:31;;;;;;;28.90;14.25;;;;;;;;;;1043354;28;20458;-65
2024/01/22 00:44:02;;;;;;;29.80;13.98;;;;;;;;;;1042893;28;20053;-64
2024/01/22 00:44:33;;;;;;;32.88;14.68;;;;;;;;;;1042827;28;20060;-64
2024/01/22 00:45:03;;;;;;;33.05;14.57;;;;;;;;;;1042248;28;20048;-64
2024/01/22 00:45:34;;;;;;;36.60;14.38;;;;;;;;;;1043196;28;20151;-64
2024/01/22 00:46:04;;;;;;;29.80;14.65;;;;;;;;;;1041860;28;20064;-66
2024/01/22 00:46:35;;;;;;;33.90;14.52;;;;;;;;;;1043047;28;20075;-64
2024/01/22 00:47:05;;;;;;;30.92;15.00;;;;;;;;;;1042394;28;20475;-66
2024/01/22 00:47:36;;;;;;;25.58;13.98;;;;;;;;;;1042774;28;20044;-64
2024/01/22 00:48:07;;;;;;;29.90;13.88;;;;;;;;;;1042123;28;20106;-64
2024/01/22 00:48:38;;;;;;;32.10;14.63;;;;;;;;;;1042544;28;20079;-64
2024/01/22 00:49:08;;;;;;;28.02;13.05;;;;;;;;;;1044887;28;20060;-64
2024/01/22 00:49:39;;;;;;;30.77;13.80;;;;;;;;;;1046662;28;20821;-65
2024/01/22 00:50:09;;;;;;;31.77;14.52;;;;;;;;;;1047150;28;20044;-65
2024/01/22 00:50:40;;;;;;;26.65;12.75;;;;;;;;;;1045944;28;20055;-65
2024/01/22 00:51:10;;;;;;;25.55;13.15;;;;;;;;;;1044291;28;20068;-64
2024/01/22 00:51:41;;;;;;;29.58;14.48;;;;;;;;;;1042188;28;20049;-65
2024/01/22 00:52:11;;;;;;;26.92;13.35;;;;;;;;;;1042610;28;20491;-64
2024/01/22 00:52:42;;;;;;;28.55;15.13;;;;;;;;;;1042432;28;20060;-64
2024/01/22 00:53:12;;;;;;;28.58;13.95;;;;;;;;;;1042160;28;20048;-64
2024/01/22 00:53:43;;;;;;;30.75;13.93;;;;;;;;;;1042353;28;20187;-65
2024/01/22 00:54:14;;;;;;;35.00;14.55;;;;;;;;;;1042186;28;20063;-64
2024/01/22 00:54:44;;;;;;;29.77;15.45;;;;;;;;;;1042031;28;20222;-64
2024/01/22 00:55:14;;;;;;;28.15;13.63;;;;;;;;;;1042559;28;20512;-64
2024/01/22 00:55:45;;;;;;;30.40;14.10;;;;;;;;;;1042072;28;20473;-64
2024/01/22 00:56:15;;;;;;;28.85;12.95;;;;;;;;;;1042226;28;20048;-66
2024/01/22 00:56:46;;;;;;;26.38;13.63;;;;;;;;;;1042246;28;20080;-65
2024/01/22 00:57:19;;;;;;;28.38;14.50;;;;;;;;;;1042727;28;20083;-64
2024/01/22 00:57:49;;;;;;;30.33;14.90;;;;;;;;;;1042239;28;20049;-64
2024/01/22 00:58:20;;;;;;;28.05;13.85;;;;;;;;;;1046206;28;20049;-65
2024/01/22 00:58:51;;;;;;;28.55;13.52;;;;;;;;;;1042010;28;20079;-64
2024/01/22 00:59:21;;;;;;;26.25;13.20;;;;;;;;;;1043105;28;20091;-64
2024/01/22 00:59:52;;;;;;;28.52;13.02;;;;;;;;;;1045632;28;20049;-64
2024/01/22 01:00:22;;;;;;;30.95;14.02;;;;;;;;;;1047032;28;20041;-65
2024/01/22 01:00:54;;;;;;;25.40;13.52;;;;;;;;;;1046320;28;20064;-65
2024/01/22 01:01:24;;;;;;;29.73;13.18;;;;;;;;;;1044800;28;20048;-66
2024/01/22 01:01:55;;;;;;;29.13;15.27;;;;;;;;;;1045383;28;20040;-64
2024/01/22 01:02:25;;;;;;;28.23;14.30;;;;;;;;;;1046980;28;20041;-64
2024/01/22 01:02:56;;;;;;;27.85;14.07;;;;;;;;;;1046351;28;20094;-64
2024/01/22 01:03:26;;;;;;;27.10;14.27;;;;;;;;;;1046652;28;20068;-65
2024/01/22 01:03:57;;;;;;;35.83;14.25;;;;;;;;;;1046537;28;20071;-65
2024/01/22 01:04:28;;;;;;;27.13;13.55;;;;;;;;;;1046441;28;20049;-64
2024/01/22 01:04:59;;;;;;;32.03;13.80;;;;;;;;;;1043323;28;20064;-66
2024/01/22 01:05:29;;;;;;;28.48;13.88;;;;;;;;;;1043675;28;20056;-64
2024/01/22 01:06:00;;;;;;;27.17;13.55;;;;;;;;;;1043528;28;20472;-64
2024/01/22 01:06:31;;;;;;;28.17;13.77;;;;;;;;;;1043615;28;20497;-64
2024/01/22 01:07:01;;;;;;;26.10;12.88;;;;;;;;;;1044986;28;20075;-64
2024/01/22 01:07:32;;;;;;;26.83;14.07;;;;;;;;;;1044519;28;20037;-64
2024/01/22 01:08:02;;;;;;;29.75;13.27;;;;;;;;;;1042265;28;20071;-64
2024/01/22 01:08:33;;;;;;;27.55;13.63;;;;;;;;;;1045555;28;20045;-64
2024/01/22 01:09:03;;;;;;;30.23;12.80;;;;;;;;;;1045909;28;20059;-65
2024/01/22 01:09:34;;;;;;;27.42;13.02;;;;;;;;;;1045598;28;20052;-64
2024/01/22 01:10:05;;;;;;;25.40;13.00;;;;;;;;;;1041686;28;20473;-64
2024/01/22 01:10:36;;;;;;;27.63;13.75;;;;;;;;;;1042990;28;20087;-67
2024/01/22 01:11:06;;;;;;;28.67;13.00;;;;;;;;;;1042132;28;20041;-64
2024/01/22 01:11:37;;;;;;;30.85;13.65;;;;;;;;;;1042278;28;20045;-65
2024/01/22 01:12:08;;;;;;;26.42;12.88;;;;;;;;;;1042204;28;20051;-64
2024/01/22 01:12:38;;;;;;;32.47;15.25;;;;;;;;;;1045822;28;20055;-65
2024/01/22 01:13:08;;;;;;;29.10;14.48;;;;;;;;;;1042930;28;20056;-64
2024/01/22 01:13:39;;;;;;;30.77;12.40;;;;;;;;;;1045826;28;20121;-64
2024/01/22 01:14:09;;;;;;;23.27;13.02;;;;;;;;;;1049461;28;20131;-66
2024/01/22 01:14:40;;;;;;;29.85;14.38;;;;;;;;;;1050263;28;20369;-65
2024/01/22 01:15:11;;;;;;;28.38;12.90;;;;;;;;;;1051157;28;20161;-64
2024/01/22 01:15:41;;;;;;;31.25;13.88;;;;;;;;;;1050051;28;20040;-64
2024/01/22 01:16:12;;;;;;;26.75;12.80;;;;;;;;;;1051373;28;20048;-64
2024/01/22 01:16:42;;;;;;;24.80;13.30;;;;;;;;;;1050714;28;20039;-64
2024/01/22 01:17:12;;;;;;;29.63;13.73;;;;;;;;;;1050626;28;20455;-64
2024/01/22 01:17:43;;;;;;;24.92;12.82;;;;;;;;;;1050715;28;20060;-64
2024/01/22 01:18:13;;;;;;;29.13;13.00;;;;;;;;;;1050640;28;20127;-64
2024/01/22 01:18:44;;;;;;;31.27;14.10;;;;;;;;;;1050617;28;20436;-64
2024/01/22 01:19:15;;;;;;;31.00;12.57;;;;;;;;;;1050895;28;20051;-64
2024/01/22 01:19:45;;;;;;;29.65;12.68;;;;;;;;;;1047344;28;20052;-64
2024/01/22 01:20:16;;;;;;;26.58;13.85;;;;;;;;;;1051295;28;20508;-64
2024/01/22 01:20:46;;;;;;;29.60;12.98;;;;;;;;;;1050142;28;20047;-64
2024/01/22 01:21:22;;;;;;;25.20;12.60;;;;;;;;;;1051233;28;20130;-64
2024/01/22 01:21:52;;;;;;;31.35;13.25;;;;;;;;;;1047748;28;20040;-64
2024/01/22 01:22:23;;;;;;;26.65;13.00;;;;;;;;;;1050086;28;20064;-64
2024/01/22 01:22:54;;;;;;;27.05;12.98;;;;;;;;;;1049794;28;20050;-64
2024/01/22 01:23:24;;;;;;;26.40;11.90;;;;;;;;;;1048355;28;20565;-66
2024/01/22 01:23:55;;;;;;;30.63;13.38;;;;;;;;;;1046073;28;20049;-64
2024/01/22 01:24:25;;;;;;;25.83;13.30;;;;;;;;;;1051284;28;20048;-65
2024/01/22 01:24:56;;;;;;;27.73;13.10;;;;;;;;;;1049893;28;20040;-64
2024/01/22 01:25:26;;;;;;;26.35;11.95;;;;;;;;;;1046484;28;20044;-64
2024/01/22 01:25:57;;;;;;;24.75;11.95;;;;;;;;;;1046583;28;20133;-64
2024/01/22 01:26:27;;;;;;;33.97;13.48;;;;;;;;;;1048511;28;20826;-64
2024/01/22 01:26:58;;;;;;;26.42;12.82;;;;;;;;;;1050829;28;20087;-64
2024/01/22 01:27:28;;;;;;;26.13;12.73;;;;;;;;;;1049920;28;20052;-64
2024/01/22 01:27:59;;;;;;;27.20;12.60;;;;;;;;;;1046052;28;20048;-64
2024/01/22 01:28:29;;;;;;;29.52;12.90;;;;;;;;;;1046853;28;20597;-64
2024/01/22 01:29:00;;;;;;;29.13;13.63;;;;;;;;;;1045549;28;20576;-64
2024/01/22 01:29:31;;;;;;;31.80;12.30;;;;;;;;;;1046906;28;20044;-64
2024/01/22 01:30:01;;;;;;;27.80;12.23;;;;;;;;;;1048345;28;20381;-64
2024/01/22 01:30:32;;;;;;;27.35;12.95;;;;;;;;;;1049266;28;20810;-64
2024/01/22 01:31:02;;;;;;;30.25;13.35;;;;;;;;;;1046101;28;20056;-64
2024/01/22 01:31:33;;;;;;;27.98;12.85;;;;;;;;;;1047133;28;20048;-64
2024/01/22 01:32:03;;;;;;;28.70;12.40;;;;;;;;;;1046593;28;20048;-64
2024/01/22 01:32:34;;;;;;;28.55;13.05;;;;;;;;;;1046451;28;20068;-64
2024/01/22 01:33:05;;;;;;;22.52;11.48;;;;;;;;;;1049784;28;20090;-64
2024/01/22 01:33:35;;;;;;;22.55;12.23;;;;;;;;;;1050805;28;20051;-64
2024/01/22 01:34:06;;;;;;;29.13;13.50;;;;;;;;;;1050476;28;20569;-64
2024/01/22 01:34:36;;;;;;;28.90;12.68;;;;;;;;;;1050818;28;20048;-65
2024/01/22 01:35:07;;;;;;;27.85;12.30;;;;;;;;;;1049780;28;20055;-64
2024/01/22 01:35:38;;;;;;;23.92;11.65;;;;;;;;;;1046707;28;20131;-64
2024/01/22 01:36:08;;;;;;;28.33;12.27;;;;;;;;;;1047662;28;20139;-64
2024/01/22 01:36:39;;;;;;;29.38;12.15;;;;;;;;;;1045476;28;20090;-64
2024/01/22 01:37:09;;;;;;;24.13;12.50;;;;;;;;;;1046852;28;20158;-64
2024/01/22 01:37:40;;;;;;;30.80;12.90;;;;;;;;;;1046187;28;20053;-64
2024/01/22 01:38:11;;;;;;;26.92;12.43;;;;;;;;;;1048384;28;20220;-65
2024/01/22 01:38:41;;;;;;;28.75;12.38;;;;;;;;;;1050802;28;20101;-64
2024/01/22 01:39:12;;;;;;;28.48;11.60;;;;;;;;;;1050401;28;20177;-65
2024/01/22 01:39:43;;;;;;;25.48;11.70;;;;;;;;;;1050753;28;20127;-65
2024/01/22 01:40:14;;;;;;;25.40;12.35;;;;;;;;;;1050409;28;20070;-64
2024/01/22 01:40:44;;;;;;;26.40;12.88;;;;;;;;;;1049718;28;20063;-65
2024/01/22 01:41:15;;;;;;;28.85;11.95;;;;;;;;;;1046384;28;20060;-64
2024/01/22 01:41:49;;;;;;;27.55;11.52;;;;;;;;;;1046783;28;20481;-64
2024/01/22 01:42:19;;;;;;;26.60;13.18;;;;;;;;;;1049887;28;20044;-64
2024/01/22 01:42:49;;;;;;;23.60;11.85;;;;;;;;;;1049841;28;20078;-64
2024/01/22 01:43:20;;;;;;;29.60;13.13;;;;;;;;;;1051052;28;20044;-64
2024/01/22 01:43:51;;;;;;;23.65;11.02;;;;;;;;;;1050212;28;20166;-64
2024/01/22 01:44:49;;;;;;;29.48;12.30;;;;;;;;;;1050912;28;20059;-64
2024/01/22 01:45:20;;;;;;;23.33;11.23;;;;;;;;;;1046425;28;20045;-64
2024/01/22 01:45:50;;;;;;;23.60;11.50;;;;;;;;;;1046488;28;20120;-64
2024/01/22 01:46:21;;;;;;;27.25;12.20;;;;;;;;;;1050571;28;20055;-64
2024/01/22 01:46:51;;;;;;;25.02;10.95;;;;;;;;;;1050504;28;20385;-64
2024/01/22 01:47:22;;;;;;;22.77;10.70;;;;;;;;;;1050807;28;20532;-64
2024/01/22 01:47:53;;;;;;;27.92;12.13;;;;;;;;;;1050725;28;20521;-64
2024/01/22 01:48:23;;;;;;;27.23;12.55;;;;;;;;;;1047751;28;20044;-64
2024/01/22 01:48:54;;;;;;;23.92;11.75;;;;;;;;;;1047719;28;20048;-64
2024/01/22 01:49:25;;;;;;;18.98;11.32;;;;;;;;;;1046524;28;20064;-64
2024/01/22 01:49:55;;;;;;;26.00;12.65;;;;;;;;;;1047266;28;20064;-64
2024/01/22 01:50:26;;;;;;;23.70;12.40;;;;;;;;;;1047242;28;20029;-64
2024/01/22 01:50:57;;;;;;;23.35;11.93;;;;;;;;;;1050016;28;20040;-64
2024/01/22 01:51:28;;;;;;;26.02;11.63;;;;;;;;;;1047532;28;20051;-64
2024/01/22 01:51:58;;;;;;;25.05;10.98;;;;;;;;;;1047010;28;20056;-65
2024/01/22 01:52:29;;;;;;;25.65;11.93;;;;;;;;;;1047872;28;20129;-64
2024/01/22 01:53:00;;;;;;;22.02;11.63;;;;;;;;;;1046738;28;20056;-63
2024/01/22 01:53:33;;;;;;;23.85;11.57;;;;;;;;;;1049307;28;20102;-64
2024/01/22 01:54:05;;;;;;;26.88;12.05;;;;;;;;;;1046802;28;20075;-64
2024/01/22 01:54:37;;;;;;;24.80;12.02;;;;;;;;;;1047288;28;20051;-64
2024/01/22 01:55:08;;;;;;;23.77;11.45;;;;;;;;;;1046368;28;20076;-64
2024/01/22 01:55:40;;;;;;;26.13;11.60;;;;;;;;;;1050533;28;20044;-65
2024/01/22 01:56:11;;;;;;;24.92;12.73;;;;;;;;;;1051892;28;20040;-64
2024/01/22 01:56:41;;;;;;;22.25;10.90;;;;;;;;;;1046984;28;20045;-65
2024/01/22 01:57:12;;;;;;;23.23;11.38;;;;;;;;;;1050160;28;20048;-64
2024/01/22 01:57:43;;;;;;;25.08;11.73;;;;;;;;;;1046918;28;20114;-64
2024/01/22 01:58:14;;;;;;;26.15;11.85;;;;;;;;;;1047766;28;20049;-64
2024/01/22 01:58:46;;;;;;;27.83;12.35;;;;;;;;;;1048167;28;20131;-64
2024/01/22 01:59:18;;;;;;;23.98;12.10;;;;;;;;;;1052004;28;20048;-64
2024/01/22 01:59:49;;;;;;;23.20;10.98;;;;;;;;;;1050749;28;20047;-64
2024/01/22 02:00:20;;;;;;;23.05;11.82;;;;;;;;;;1052048;28;20046;-64
2024/01/22 02:00:54;;;;;;;25.35;10.98;;;;;;;;;;1051475;28;20066;-64
2024/01/22 02:01:24;;;;;;;24.38;11.02;;;;;;;;;;1047728;28;20527;-64
2024/01/22 02:01:55;;;;;;;22.20;11.25;;;;;;;;;;1047451;28;20548;-64
2024/01/22 02:02:26;;;;;;;26.98;12.75;;;;;;;;;;1047227;28;20044;-64
2024/01/22 02:02:57;;;;;;;21.65;11.52;;;;;;;;;;1047293;28;20049;-64
2024/01/22 02:03:27;;;;;;;24.73;12.63;;;;;;;;;;1047212;28;20241;-64
2024/01/22 02:03:58;;;;;;;23.38;11.27;;;;;;;;;;1048172;28;20049;-64
2024/01/22 02:04:29;;;;;;;24.50;11.18;;;;;;;;;;1051115;28;20040;-64
2024/01/22 02:05:02;;;;;;;27.42;11.25;;;;;;;;;;1051278;28;20127;-64
2024/01/22 02:05:32;;;;;;;28.65;11.40;;;;;;;;;;1051006;28;20089;-64
2024/01/22 02:06:03;;;;;;;22.25;10.45;;;;;;;;;;1047390;28;20056;-64
2024/01/22 02:06:34;;;;;;;23.65;10.93;;;;;;;;;;1047331;28;20067;-64
2024/01/22 02:07:04;;;;;;;27.23;11.10;;;;;;;;;;1046766;28;20481;-64
2024/01/22 02:07:35;;;;;;;23.35;11.70;;;;;;;;;;1047634;28;20053;-65
2024/01/22 02:08:06;;;;;;;30.75;11.10;;;;;;;;;;1046929;28;20055;-64
2024/01/22 02:08:36;;;;;;;24.67;10.90;;;;;;;;;;1047681;28;20106;-64
2024/01/22 02:09:07;;;;;;;24.65;11.68;;;;;;;;;;1046632;28;20508;-64
2024/01/22 02:09:47;;;;;;;24.13;10.90;;;;;;;;;;1047706;28;20053;-64
2024/01/22 02:10:17;;;;;;;24.08;10.57;;;;;;;;;;1042873;28;20041;-64
2024/01/22 02:10:48;;;;;;;24.73;10.70;;;;;;;;;;1044046;28;20045;-64
2024/01/22 02:11:22;;;;;;;24.60;11.52;;;;;;;;;;1046674;28;20048;-64
2024/01/22 02:11:52;;;;;;;23.90;10.68;;;;;;;;;;1043039;28;20529;-64
2024/01/22 02:12:23;;;;;;;27.40;10.40;;;;;;;;;;1043580;28;20780;-64
2024/01/22 02:12:54;;;;;;;26.42;12.57;;;;;;;;;;1042600;28;20103;-64
2024/01/22 02:13:28;;;;;;;23.30;10.30;;;;;;;;;;1043589;28;20049;-64
2024/01/22 02:13:58;;;;;;;25.52;10.57;;;;;;;;;;1043917;28;20068;-64
2024/01/22 02:14:29;;;;;;;19.83;10.13;;;;;;;;;;1044886;28;20053;-64
2024/01/22 02:14:59;;;;;;;24.77;10.50;;;;;;;;;;1042532;28;20056;-64
2024/01/22 02:15:30;;;;;;;23.17;10.63;;;;;;;;;;1043619;28;20111;-64
2024/01/22 02:16:00;;;;;;;26.52;10.70;;;;;;;;;;1042552;28;20049;-64
2024/01/22 02:16:31;;;;;;;23.55;10.02;;;;;;;;;;1043485;28;20122;-64
2024/01/22 02:17:02;;;;;;;25.83;11.20;;;;;;;;;;1043306;28;20053;-64
2024/01/22 02:17:32;;;;;;;22.23;11.13;;;;;;;;;;1043042;28;20128;-65
2024/01/22 02:18:03;;;;;;;22.23;10.57;;;;;;;;;;1042697;28;20068;-64
2024/01/22 02:18:33;;;;;;;20.45;10.45;;;;;;;;;;1043106;28;20079;-64
2024/01/22 02:19:04;;;;;;;27.15;9.63;;;;;;;;;;1043080;28;20064;-64
2024/01/22 02:19:34;;;;;;;23.33;11.75;;;;;;;;;;1044542;28;20097;-64
2024/01/22 02:20:06;;;;;;;21.92;10.55;;;;;;;;;;1043324;28;20056;-64
2024/01/22 02:20:36;;;;;;;25.20;10.80;;;;;;;;;;1042954;28;20048;-64
2024/01/22 02:21:07;;;;;;;24.58;10.75;;;;;;;;;;1043003;28;20068;-64
2024/01/22 02:21:38;;;;;;;19.85;9.73;;;;;;;;;;1044472;28;20052;-64
2024/01/22 02:22:08;;;;;;;19.10;10.05;;;;;;;;;;1044207;28;20075;-64
2024/01/22 02:22:39;;;;;;;18.98;10.25;;;;;;;;;;1043113;28;20114;-65
2024/01/22 02:23:09;;;;;;;24.02;10.00;;;;;;;;;;1046306;28;20856;-64
2024/01/22 02:23:40;;;;;;;23.63;10.10;;;;;;;;;;1046939;28;20070;-66
2024/01/22 02:24:11;;;;;;;21.80;10.82;;;;;;;;;;1046979;28;20135;-64
2024/01/22 02:24:42;;;;;;;26.67;11.00;;;;;;;;;;1048712;28;20123;-64
2024/01/22 02:25:13;;;;;;;19.27;9.70;;;;;;;;;;1051877;28;20044;-64
2024/01/22 02:25:43;;;;;;;22.23;10.27;;;;;;;;;;1050718;28;20048;-64
2024/01/22 02:26:14;;;;;;;24.90;10.73;;;;;;;;;;1051729;28;20052;-64
2024/01/22 02:26:44;;;;;;;23.00;10.52;;;;;;;;;;1049547;28;20120;-64
2024/01/22 02:27:15;;;;;;;20.60;9.98;;;;;;;;;;1048423;28;20052;-64
2024/01/22 02:27:46;;;;;;;22.23;10.02;;;;;;;;;;1050771;28;20046;-64
2024/01/22 02:28:16;;;;;;;17.92;9.40;;;;;;;;;;1051894;28;20056;-64
2024/01/22 02:28:47;;;;;;;21.63;9.45;;;;;;;;;;1050358;28;20087;-64
2024/01/22 02:29:17;;;;;;;20.90;10.95;;;;;;;;;;1051358;28;20479;-64
2024/01/22 02:29:48;;;;;;;30.20;10.18;;;;;;;;;;1050872;28;20044;-64
2024/01/22 02:30:18;;;;;;;23.00;10.18;;;;;;;;;;1050905;28;20044;-64
2024/01/22 02:30:49;;;;;;;25.73;10.52;;;;;;;;;;1051359;28;20047;-64
2024/01/22 02:31:19;;;;;;;20.25;9.50;;;;;;;;;;1048407;28;20506;-64
2024/01/22 02:31:52;;;;;;;24.20;10.13;;;;;;;;;;1048127;28;20044;-64
2024/01/22 02:32:23;;;;;;;17.23;8.63;;;;;;;;;;1048259;28;20049;-64
2024/01/22 02:32:53;;;;;;;27.25;9.30;;;;;;;;;;1051174;28;20048;-64
2024/01/22 02:33:24;;;;;;;19.48;9.73;;;;;;;;;;1050040;28;20048;-64
2024/01/22 02:33:54;;;;;;;21.63;9.93;;;;;;;;;;1046790;28;20059;-64
2024/01/22 02:34:25;;;;;;;18.67;8.80;;;;;;;;;;1048419;28;20049;-64
2024/01/22 02:34:56;;;;;;;19.25;8.45;;;;;;;;;;1049540;28;20044;-67
2024/01/22 02:35:26;;;;;;;21.23;9.45;;;;;;;;;;1051090;28;20101;-64
2024/01/22 02:35:56;;;;;;;18.80;9.25;;;;;;;;;;1050473;28;20431;-64
2024/01/22 02:36:27;;;;;;;21.08;9.88;;;;;;;;;;1051706;28;20101;-64
2024/01/22 02:36:58;;;;;;;18.33;9.65;;;;;;;;;;1047961;28;20048;-64
2024/01/22 02:37:28;;;;;;;19.90;9.55;;;;;;;;;;1047319;28;20127;-64
2024/01/22 02:37:59;;;;;;;22.38;9.75;;;;;;;;;;1049717;28;20100;-64
2024/01/22 02:38:30;;;;;;;19.35;8.82;;;;;;;;;;1051619;28;20052;-64
2024/01/22 02:39:00;;;;;;;21.20;10.57;;;;;;;;;;1050144;28;20063;-64
2024/01/22 02:39:31;;;;;;;20.00;9.73;;;;;;;;;;1049851;28;20055;-64
2024/01/22 02:40:01;;;;;;;22.48;9.48;;;;;;;;;;1050638;28;20059;-64
2024/01/22 02:40:32;;;;;;;22.42;10.25;;;;;;;;;;1047603;28;20056;-64
2024/01/22 02:41:02;;;;;;;24.48;10.60;;;;;;;;;;1047116;28;20529;-64
2024/01/22 02:41:33;;;;;;;17.02;8.63;;;;;;;;;;1047121;28;20546;-64
2024/01/22 02:42:04;;;;;;;17.23;9.02;;;;;;;;;;1047065;28;20044;-64
2024/01/22 02:42:34;;;;;;;18.55;9.07;;;;;;;;;;1047284;28;20051;-64
2024/01/22 02:43:04;;;;;;;21.02;9.25;;;;;;;;;;1050716;28;20052;-64
2024/01/22 02:43:35;;;;;;;22.98;9.75;;;;;;;;;;1051949;28;20454;-64
2024/01/22 02:44:05;;;;;;;23.55;9.43;;;;;;;;;;1050217;28;20118;-64
2024/01/22 02:44:36;;;;;;;20.02;9.70;;;;;;;;;;1047803;28;20052;-64
2024/01/22 02:45:07;;;;;;;18.02;8.75;;;;;;;;;;1049486;28;20616;-65
2024/01/22 02:45:38;;;;;;;16.90;8.30;;;;;;;;;;1051474;28;20042;-64
2024/01/22 02:46:08;;;;;;;20.08;9.80;;;;;;;;;;1050714;28;20062;-64
2024/01/22 02:46:39;;;;;;;16.38;8.85;;;;;;;;;;1051481;28;20477;-64
2024/01/22 02:47:09;;;;;;;19.85;9.13;;;;;;;;;;1051108;28;20536;-64
2024/01/22 02:47:40;;;;;;;18.70;8.40;;;;;;;;;;1051468;28;20047;-65
2024/01/22 02:48:10;;;;;;;20.17;8.90;;;;;;;;;;1050109;28;20511;-65
2024/01/22 02:48:41;;;;;;;18.88;9.00;;;;;;;;;;1046620;28;20045;-64
2024/01/22 02:49:12;;;;;;;17.52;9.02;;;;;;;;;;1047454;28;20052;-64
2024/01/22 02:49:42;;;;;;;18.50;7.72;;;;;;;;;;1046469;28;20051;-64
2024/01/22 02:50:13;;;;;;;19.10;8.40;;;;;;;;;;1048866;28;20373;-64
2024/01/22 02:50:43;;;;;;;17.90;8.50;;;;;;;;;;1050945;28;20056;-64
2024/01/22 02:51:14;;;;;;;18.77;8.65;;;;;;;;;;1051639;28;20052;-64
2024/01/22 02:51:44;;;;;;;15.80;8.50;;;;;;;;;;1050919;28;22178;-67
2024/01/22 02:52:15;;;;;;;16.15;7.75;;;;;;;;;;1049162;28;20479;-64
2024/01/22 02:52:46;;;;;;;15.88;8.00;;;;;;;;;;1050393;28;20135;-64
2024/01/22 02:53:16;;;;;;;19.45;8.57;;;;;;;;;;1050935;28;20105;-64
2024/01/22 02:53:48;;;;;;;16.75;8.73;;;;;;;;;;1051082;28;20687;-64
2024/01/22 02:54:18;;;;;;;18.10;8.70;;;;;;;;;;1049655;28;20100;-66
2024/01/22 02:54:48;;;;;;;17.73;8.63;;;;;;;;;;1051060;28;20120;-66
2024/01/22 02:55:19;;;;;;;18.17;8.38;;;;;;;;;;1049333;28;20052;-64
2024/01/22 02:55:49;;;;;;;15.65;8.07;;;;;;;;;;1047011;28;20502;-64
2024/01/22 02:56:21;;;;;;;17.02;8.75;;;;;;;;;;1047254;28;20040;-64
2024/01/22 02:56:51;;;;;;;22.40;8.70;;;;;;;;;;1046994;28;20377;-66
2024/01/22 02:57:21;;;;;;;18.17;8.30;;;;;;;;;;1047642;28;20794;-66
2024/01/22 02:57:52;;;;;;;17.77;8.13;;;;;;;;;;1046611;28;20056;-64
2024/01/22 02:58:22;;;;;;;16.77;8.55;;;;;;;;;;1050992;28;20055;-64
2024/01/22 02:58:53;;;;;;;18.15;9.25;;;;;;;;;;1050773;28;20070;-64
2024/01/22 02:59:23;;;;;;;20.13;8.82;;;;;;;;;;1051883;28;20105;-65
2024/01/22 02:59:54;;;;;;;18.67;8.25;;;;;;;;;;1050450;28;20408;-66